sensor_id;sensor_type;location;lat;lon;timestamp;pressure;altitude;pressure_sealevel;temperature;humidity
17505;BME280;8870;50.950;11.762;2024-02-23T00:03:20;95573.16;;;11.03;100.00
17505;BME280;8870;50.950;11.762;2024-02-23T00:08:38;95590.47;;;10.95;100.00
17505;BME280;8870;50.950;11.762;2024-02-23T00:14:12;95573.47;;;10.83;100.00
17505;BME280;8870;50.950;11.762;2024-02-23T00:19:30;95581.31;;;10.72;100.00
17505;BME280;8870;50.950;11.762;2024-02-23T00:25:02;95612.88;;;10.65;100.00
17505;BME280;8870;50.950;11.762;2024-02-23T00:30:24;95620.41;;;10.63;100.00
17505;BME280;8870;50.950;11.762;2024-02-23T00:35:55;95626.09;;;10.55;100.00
17505;BME280;8870;50.950;11.762;2024-02-23T00:41:13;95623.88;;;10.52;100.00
17505;BME280;8870;50.950;11.762;2024-02-23T00:46:46;95627.47;;;10.45;100.00
17505;BME280;8870;50.950;11.762;2024-02-23T00:52:05;95629.56;;;10.43;100.00
17505;BME280;8870;50.950;11.762;2024-02-23T00:57:38;95658.00;;;10.39;100.00
17505;BME280;8870;50.950;11.762;2024-02-23T01:02:59;95685.06;;;10.26;100.00
17505;BME280;8870;50.950;11.762;2024-02-23T01:08:30;95739.31;;;10.23;100.00
17505;BME280;8870;50.950;11.762;2024-02-23T01:13:49;95755.59;;;10.09;100.00
17505;BME280;8870;50.950;11.762;2024-02-23T01:19:22;95769.50;;;9.87;100.00
17505;BME280;8870;50.950;11.762;2024-02-23T01:24:41;95803.69;;;9.80;100.00
17505;BME280;8870;50.950;11.762;2024-02-23T01:30:12;95817.19;;;9.74;100.00
17505;BME280;8870;50.950;11.762;2024-02-23T01:35:33;95812.13;;;9.59;100.00
17505;BME280;8870;50.950;11.762;2024-02-23T01:41:04;95825.69;;;9.45;100.00
17505;BME280;8870;50.950;11.762;2024-02-23T01:46:22;95848.13;;;9.25;100.00
17505;BME280;8870;50.950;11.762;2024-02-23T01:51:56;95835.44;;;9.07;100.00
17505;BME280;8870;50.950;11.762;2024-02-23T01:57:14;95847.50;;;8.91;100.00
17505;BME280;8870;50.950;11.762;2024-02-23T02:03:04;95898.16;;;8.74;100.00
17505;BME280;8870;50.950;11.762;2024-02-23T02:08:25;95905.84;;;8.64;100.00
17505;BME280;8870;50.950;11.762;2024-02-23T02:13:57;95907.75;;;8.50;100.00
17505;BME280;8870;50.950;11.762;2024-02-23T02:19:15;95911.84;;;8.39;100.00
17505;BME280;8870;50.950;11.762;2024-02-23T02:24:48;95919.50;;;8.29;100.00
17505;BME280;8870;50.950;11.762;2024-02-23T02:30:14;95924.69;;;8.17;100.00
17505;BME280;8870;50.950;11.762;2024-02-23T02:35:45;95938.50;;;8.00;100.00
17505;BME280;8870;50.950;11.762;2024-02-23T02:41:08;95959.75;;;7.95;100.00
17505;BME280;8870;50.950;11.762;2024-02-23T02:46:40;95953.78;;;7.86;100.00
17505;BME280;8870;50.950;11.762;2024-02-23T02:51:58;95969.00;;;7.72;100.00
17505;BME280;8870;50.950;11.762;2024-02-23T02:57:34;95970.84;;;7.65;100.00
17505;BME280;8870;50.950;11.762;2024-02-23T03:02:52;95994.31;;;7.56;100.00
17505;BME280;8870;50.950;11.762;2024-02-23T03:08:24;95994.69;;;7.47;100.00
17505;BME280;8870;50.950;11.762;2024-02-23T03:13:45;96007.25;;;7.39;100.00
17505;BME280;8870;50.950;11.762;2024-02-23T03:19:16;96028.00;;;7.24;100.00
17505;BME280;8870;50.950;11.762;2024-02-23T03:24:37;96019.78;;;7.25;100.00
17505;BME280;8870;50.950;11.762;2024-02-23T03:30:05;96033.31;;;7.11;100.00
17505;BME280;8870;50.950;11.762;2024-02-23T03:35:30;96048.88;;;6.93;100.00
17505;BME280;8870;50.950;11.762;2024-02-23T03:41:01;96053.50;;;6.78;100.00
17505;BME280;8870;50.950;11.762;2024-02-23T03:46:35;96081.47;;;6.75;100.00
17505;BME280;8870;50.950;11.762;2024-02-23T03:51:53;96092.66;;;6.86;100.00
17505;BME280;8870;50.950;11.762;2024-02-23T03:57:24;96112.47;;;6.91;100.00
17505;BME280;8870;50.950;11.762;2024-02-23T04:02:45;96114.31;;;6.91;100.00
17505;BME280;8870;50.950;11.762;2024-02-23T04:08:16;96115.47;;;6.82;100.00
17505;BME280;8870;50.950;11.762;2024-02-23T04:13:34;96122.00;;;6.72;100.00
17505;BME280;8870;50.950;11.762;2024-02-23T04:19:10;96129.09;;;6.58;100.00
17505;BME280;8870;50.950;11.762;2024-02-23T04:24:28;96124.88;;;6.49;100.00
17505;BME280;8870;50.950;11.762;2024-02-23T04:29:59;96149.16;;;6.47;100.00
17505;BME280;8870;50.950;11.762;2024-02-23T04:35:20;96160.59;;;6.41;100.00
17505;BME280;8870;50.950;11.762;2024-02-23T04:40:51;96179.53;;;6.40;100.00
17505;BME280;8870;50.950;11.762;2024-02-23T04:46:09;96188.13;;;6.35;100.00
17505;BME280;8870;50.950;11.762;2024-02-23T04:51:43;96203.34;;;6.35;100.00
17505;BME280;8870;50.950;11.762;2024-02-23T04:57:01;96176.53;;;6.28;100.00
17505;BME280;8870;50.950;11.762;2024-02-23T05:02:32;96179.31;;;6.20;100.00
17505;BME280;8870;50.950;11.762;2024-02-23T05:07:53;96182.31;;;6.10;100.00
17505;BME280;8870;50.950;11.762;2024-02-23T05:13:24;96175.88;;;6.04;100.00
17505;BME280;8870;50.950;11.762;2024-02-23T05:18:42;96208.63;;;5.98;100.00
17505;BME280;8870;50.950;11.762;2024-02-23T05:24:17;96221.09;;;5.91;100.00
17505;BME280;8870;50.950;11.762;2024-02-23T05:29:35;96222.84;;;5.83;100.00
17505;BME280;8870;50.950;11.762;2024-02-23T05:35:06;96218.63;;;5.74;100.00
17505;BME280;8870;50.950;11.762;2024-02-23T05:40:27;96216.97;;;5.73;100.00
17505;BME280;8870;50.950;11.762;2024-02-23T05:45:58;96239.53;;;5.70;100.00
17505;BME280;8870;50.950;11.762;2024-02-23T05:51:16;96251.78;;;5.65;100.00
17505;BME280;8870;50.950;11.762;2024-02-23T05:56:50;96268.91;;;5.55;100.00
17505;BME280;8870;50.950;11.762;2024-02-23T06:02:08;96263.94;;;5.52;100.00
17505;BME280;8870;50.950;11.762;2024-02-23T06:07:39;96271.03;;;5.45;100.00
17505;BME280;8870;50.950;11.762;2024-02-23T06:13:00;96280.09;;;5.36;100.00
17505;BME280;8870;50.950;11.762;2024-02-23T06:18:31;96300.19;;;5.32;100.00
17505;BME280;8870;50.950;11.762;2024-02-23T06:23:49;96303.22;;;5.29;100.00
17505;BME280;8870;50.950;11.762;2024-02-23T06:29:23;96287.28;;;5.20;100.00
17505;BME280;8870;50.950;11.762;2024-02-23T06:34:41;96308.50;;;5.14;100.00
17505;BME280;8870;50.950;11.762;2024-02-23T06:40:15;96313.53;;;5.08;100.00
17505;BME280;8870;50.950;11.762;2024-02-23T06:45:44;96336.28;;;5.04;100.00
17505;BME280;8870;50.950;11.762;2024-02-23T06:51:15;96341.78;;;5.03;100.00
17505;BME280;8870;50.950;11.762;2024-02-23T06:56:35;96358.09;;;5.08;100.00
17505;BME280;8870;50.950;11.762;2024-02-23T07:02:10;96380.25;;;5.08;100.00
17505;BME280;8870;50.950;11.762;2024-02-23T07:07:28;96352.75;;;5.08;100.00
17505;BME280;8870;50.950;11.762;2024-02-23T07:13:02;96396.28;;;5.08;100.00
17505;BME280;8870;50.950;11.762;2024-02-23T07:18:24;96387.72;;;5.13;100.00
17505;BME280;8870;50.950;11.762;2024-02-23T07:23:55;96400.91;;;5.15;100.00
17505;BME280;8870;50.950;11.762;2024-02-23T07:29:13;96436.44;;;5.15;100.00
17505;BME280;8870;50.950;11.762;2024-02-23T07:34:47;96455.44;;;5.20;100.00
17505;BME280;8870;50.950;11.762;2024-02-23T07:40:06;96447.72;;;5.25;100.00
17505;BME280;8870;50.950;11.762;2024-02-23T07:45:38;96455.03;;;5.32;100.00
17505;BME280;8870;50.950;11.762;2024-02-23T07:51:00;96467.84;;;5.36;100.00
17505;BME280;8870;50.950;11.762;2024-02-23T07:56:31;96479.66;;;5.42;100.00
17505;BME280;8870;50.950;11.762;2024-02-23T08:01:49;96482.63;;;5.47;100.00
17505;BME280;8870;50.950;11.762;2024-02-23T08:07:23;96476.78;;;5.52;100.00
17505;BME280;8870;50.950;11.762;2024-02-23T08:12:43;96467.22;;;5.58;100.00
17505;BME280;8870;50.950;11.762;2024-02-23T08:18:14;96461.81;;;5.66;100.00
17505;BME280;8870;50.950;11.762;2024-02-23T08:23:35;96471.59;;;5.74;100.00
17505;BME280;8870;50.950;11.762;2024-02-23T08:29:06;96472.34;;;5.82;100.00
17505;BME280;8870;50.950;11.762;2024-02-23T08:34:24;96473.47;;;5.88;100.00
17505;BME280;8870;50.950;11.762;2024-02-23T08:39:59;96474.97;;;5.91;100.00
17505;BME280;8870;50.950;11.762;2024-02-23T08:45:18;96483.66;;;5.93;100.00
17505;BME280;8870;50.950;11.762;2024-02-23T08:50:49;96493.94;;;5.96;100.00
17505;BME280;8870;50.950;11.762;2024-02-23T08:56:11;96488.09;;;6.00;100.00
17505;BME280;8870;50.950;11.762;2024-02-23T09:01:43;96465.00;;;6.08;100.00
17505;BME280;8870;50.950;11.762;2024-02-23T09:07:01;96484.38;;;6.10;100.00
17505;BME280;8870;50.950;11.762;2024-02-23T09:12:35;96505.75;;;6.10;100.00
17505;BME280;8870;50.950;11.762;2024-02-23T09:17:53;96494.50;;;6.14;100.00
17505;BME280;8870;50.950;11.762;2024-02-23T09:23:24;96481.06;;;6.23;100.00
17505;BME280;8870;50.950;11.762;2024-02-23T09:28:45;96495.75;;;6.27;100.00
17505;BME280;8870;50.950;11.762;2024-02-23T09:34:16;96488.19;;;6.30;100.00
17505;BME280;8870;50.950;11.762;2024-02-23T09:39:47;96491.66;;;6.31;100.00
17505;BME280;8870;50.950;11.762;2024-02-23T09:45:10;96503.31;;;6.38;100.00
17505;BME280;8870;50.950;11.762;2024-02-23T09:50:44;96495.56;;;6.43;100.00
17505;BME280;8870;50.950;11.762;2024-02-23T09:56:04;96501.75;;;6.44;100.00
17505;BME280;8870;50.950;11.762;2024-02-23T10:01:42;96489.84;;;6.46;100.00
17505;BME280;8870;50.950;11.762;2024-02-23T10:07:00;96488.84;;;6.47;100.00
17505;BME280;8870;50.950;11.762;2024-02-23T10:12:33;96485.81;;;6.51;100.00
17505;BME280;8870;50.950;11.762;2024-02-23T10:17:54;96489.19;;;6.59;100.00
17505;BME280;8870;50.950;11.762;2024-02-23T10:23:25;96502.06;;;6.64;100.00
17505;BME280;8870;50.950;11.762;2024-02-23T10:28:45;96513.38;;;6.66;100.00
17505;BME280;8870;50.950;11.762;2024-02-23T10:34:20;96525.75;;;6.67;100.00
17505;BME280;8870;50.950;11.762;2024-02-23T10:39:48;96534.06;;;6.72;100.00
17505;BME280;8870;50.950;11.762;2024-02-23T10:45:22;96547.44;;;6.72;100.00
17505;BME280;8870;50.950;11.762;2024-02-23T10:50:43;96536.91;;;6.71;100.00
17505;BME280;8870;50.950;11.762;2024-02-23T10:56:14;96565.63;;;6.77;100.00
17505;BME280;8870;50.950;11.762;2024-02-23T11:01:33;96564.78;;;6.76;100.00
17505;BME280;8870;50.950;11.762;2024-02-23T11:07:14;96547.66;;;6.86;100.00
17505;BME280;8870;50.950;11.762;2024-02-23T11:12:33;96563.16;;;6.90;100.00
17505;BME280;8870;50.950;11.762;2024-02-23T11:18:21;96554.94;;;6.92;100.00
17505;BME280;8870;50.950;11.762;2024-02-23T11:23:48;96549.22;;;6.95;100.00
17505;BME280;8870;50.950;11.762;2024-02-23T11:29:19;96540.06;;;7.04;100.00
17505;BME280;8870;50.950;11.762;2024-02-23T11:34:39;96542.00;;;7.11;100.00
17505;BME280;8870;50.950;11.762;2024-02-23T11:40:14;96536.56;;;7.19;100.00
17505;BME280;8870;50.950;11.762;2024-02-23T11:45:32;96546.50;;;7.25;100.00
17505;BME280;8870;50.950;11.762;2024-02-23T11:51:03;96553.44;;;7.19;100.00
17505;BME280;8870;50.950;11.762;2024-02-23T11:56:25;96534.13;;;7.24;100.00
17505;BME280;8870;50.950;11.762;2024-02-23T12:01:57;96532.81;;;7.35;100.00
17505;BME280;8870;50.950;11.762;2024-02-23T12:07:15;96526.91;;;7.39;100.00
17505;BME280;8870;50.950;11.762;2024-02-23T12:12:51;96536.25;;;7.44;100.00
17505;BME280;8870;50.950;11.762;2024-02-23T12:18:10;96535.22;;;7.45;100.00
17505;BME280;8870;50.950;11.762;2024-02-23T12:23:43;96535.97;;;7.38;100.00
17505;BME280;8870;50.950;11.762;2024-02-23T12:29:05;96531.06;;;7.42;100.00
17505;BME280;8870;50.950;11.762;2024-02-23T12:34:36;96537.63;;;7.39;100.00
17505;BME280;8870;50.950;11.762;2024-02-23T12:40:08;96534.50;;;7.36;100.00
17505;BME280;8870;50.950;11.762;2024-02-23T12:45:29;96537.63;;;7.39;100.00
17505;BME280;8870;50.950;11.762;2024-02-23T12:51:00;96532.72;;;7.43;100.00
17505;BME280;8870;50.950;11.762;2024-02-23T12:56:18;96550.00;;;7.40;100.00
17505;BME280;8870;50.950;11.762;2024-02-23T13:01:52;96550.75;;;7.34;100.00
17505;BME280;8870;50.950;11.762;2024-02-23T13:07:10;96537.16;;;7.36;100.00
17505;BME280;8870;50.950;11.762;2024-02-23T13:12:45;96524.16;;;7.33;100.00
17505;BME280;8870;50.950;11.762;2024-02-23T13:18:07;96536.72;;;7.32;100.00
17505;BME280;8870;50.950;11.762;2024-02-23T13:23:38;96542.09;;;7.32;100.00
17505;BME280;8870;50.950;11.762;2024-02-23T13:29:06;96540.41;;;7.31;100.00
17505;BME280;8870;50.950;11.762;2024-02-23T13:34:40;96534.41;;;7.29;100.00
17505;BME280;8870;50.950;11.762;2024-02-23T13:40:14;96537.91;;;7.30;100.00
17505;BME280;8870;50.950;11.762;2024-02-23T13:45:32;96551.88;;;7.25;100.00
17505;BME280;8870;50.950;11.762;2024-02-23T13:51:06;96547.25;;;7.19;100.00
17505;BME280;8870;50.950;11.762;2024-02-23T13:56:24;96548.16;;;7.26;100.00
17505;BME280;8870;50.950;11.762;2024-02-23T14:01:55;96549.56;;;7.22;100.00
17505;BME280;8870;50.950;11.762;2024-02-23T14:07:16;96547.25;;;7.19;100.00
17505;BME280;8870;50.950;11.762;2024-02-23T14:12:47;96552.97;;;7.16;100.00
17505;BME280;8870;50.950;11.762;2024-02-23T14:18:06;96565.72;;;7.14;100.00
17505;BME280;8870;50.950;11.762;2024-02-23T14:23:40;96568.59;;;7.12;100.00
17505;BME280;8870;50.950;11.762;2024-02-23T14:28:58;96572.75;;;7.15;100.00
17505;BME280;8870;50.950;11.762;2024-02-23T14:34:30;96583.09;;;7.18;100.00
17505;BME280;8870;50.950;11.762;2024-02-23T14:40:05;96580.41;;;7.18;100.00
17505;BME280;8870;50.950;11.762;2024-02-23T14:45:23;96571.06;;;7.14;100.00
17505;BME280;8870;50.950;11.762;2024-02-23T14:50:54;96584.84;;;7.11;100.00
17505;BME280;8870;50.950;11.762;2024-02-23T14:56:15;96586.03;;;7.08;100.00
17505;BME280;8870;50.950;11.762;2024-02-23T15:01:47;96579.00;;;7.07;100.00
17505;BME280;8870;50.950;11.762;2024-02-23T15:07:06;96571.53;;;7.02;100.00
17505;BME280;8870;50.950;11.762;2024-02-23T15:12:42;96560.56;;;6.97;100.00
17505;BME280;8870;50.950;11.762;2024-02-23T15:18:00;96555.56;;;6.94;100.00
17505;BME280;8870;50.950;11.762;2024-02-23T15:23:31;96551.88;;;6.95;100.00
17505;BME280;8870;50.950;11.762;2024-02-23T15:28:52;96522.81;;;6.92;100.00
17505;BME280;8870;50.950;11.762;2024-02-23T15:34:25;96522.06;;;6.83;100.00
17505;BME280;8870;50.950;11.762;2024-02-23T15:39:56;96539.69;;;6.77;100.00
17505;BME280;8870;50.950;11.762;2024-02-23T15:45:17;96568.31;;;6.77;100.00
17505;BME280;8870;50.950;11.762;2024-02-23T15:50:48;96584.91;;;6.72;100.00
17505;BME280;8870;50.950;11.762;2024-02-23T15:56:26;96579.09;;;6.69;100.00
17505;BME280;8870;50.950;11.762;2024-02-23T16:01:47;96572.09;;;6.68;100.00
17505;BME280;8870;50.950;11.762;2024-02-23T16:07:20;96582.31;;;6.64;100.00
17505;BME280;8870;50.950;11.762;2024-02-23T16:12:38;96610.44;;;6.60;100.00
17505;BME280;8870;50.950;11.762;2024-02-23T16:18:13;96604.25;;;6.59;100.00
17505;BME280;8870;50.950;11.762;2024-02-23T16:23:31;96600.00;;;6.65;100.00
17505;BME280;8870;50.950;11.762;2024-02-23T16:29:03;96588.97;;;6.68;100.00
17505;BME280;8870;50.950;11.762;2024-02-23T16:34:37;96571.63;;;6.64;100.00
17505;BME280;8870;50.950;11.762;2024-02-23T16:39:56;96554.88;;;6.47;100.00
17505;BME280;8870;50.950;11.762;2024-02-23T16:45:27;96562.22;;;6.30;100.00
17505;BME280;8870;50.950;11.762;2024-02-23T16:50:48;96586.22;;;6.15;100.00
17505;BME280;8870;50.950;11.762;2024-02-23T16:56:21;96587.16;;;5.99;100.00
17505;BME280;8870;50.950;11.762;2024-02-23T17:01:41;96583.41;;;5.85;100.00
17505;BME280;8870;50.950;11.762;2024-02-23T17:07:16;96601.00;;;5.71;100.00
17505;BME280;8870;50.950;11.762;2024-02-23T17:12:34;96595.06;;;5.61;100.00
17505;BME280;8870;50.950;11.762;2024-02-23T17:18:07;96590.94;;;5.50;100.00
17505;BME280;8870;50.950;11.762;2024-02-23T17:23:28;96591.16;;;5.40;100.00
17505;BME280;8870;50.950;11.762;2024-02-23T17:28:59;96592.69;;;5.34;100.00
17505;BME280;8870;50.950;11.762;2024-02-23T17:34:32;96598.72;;;5.28;100.00
17505;BME280;8870;50.950;11.762;2024-02-23T17:39:54;96597.72;;;5.21;100.00
17505;BME280;8870;50.950;11.762;2024-02-23T17:45:25;96603.94;;;5.13;100.00
17505;BME280;8870;50.950;11.762;2024-02-23T17:50:44;96607.31;;;5.07;100.00
17505;BME280;8870;50.950;11.762;2024-02-23T17:56:17;96608.16;;;4.99;100.00
17505;BME280;8870;50.950;11.762;2024-02-23T18:01:35;96606.31;;;4.91;100.00
17505;BME280;8870;50.950;11.762;2024-02-23T18:07:07;96605.50;;;4.83;100.00
17505;BME280;8870;50.950;11.762;2024-02-23T18:12:28;96599.88;;;4.77;100.00
17505;BME280;8870;50.950;11.762;2024-02-23T18:17:59;96613.88;;;4.71;100.00
17505;BME280;8870;50.950;11.762;2024-02-23T18:23:20;96616.88;;;4.68;100.00
17505;BME280;8870;50.950;11.762;2024-02-23T18:28:54;96609.53;;;4.62;100.00
17505;BME280;8870;50.950;11.762;2024-02-23T18:34:26;96593.06;;;4.58;100.00
17505;BME280;8870;50.950;11.762;2024-02-23T18:39:55;96611.22;;;4.55;100.00
17505;BME280;8870;50.950;11.762;2024-02-23T18:45:30;96607.56;;;4.47;100.00
17505;BME280;8870;50.950;11.762;2024-02-23T18:50:50;96610.72;;;4.43;100.00
17505;BME280;8870;50.950;11.762;2024-02-23T18:56:27;96620.22;;;4.37;100.00
17505;BME280;8870;50.950;11.762;2024-02-23T19:01:45;96612.72;;;4.32;100.00
17505;BME280;8870;50.950;11.762;2024-02-23T19:07:19;96590.09;;;4.28;100.00
17505;BME280;8870;50.950;11.762;2024-02-23T19:12:39;96590.06;;;4.20;100.00
17505;BME280;8870;50.950;11.762;2024-02-23T19:18:15;96591.75;;;4.13;100.00
17505;BME280;8870;50.950;11.762;2024-02-23T19:23:42;96586.91;;;4.08;100.00
17505;BME280;8870;50.950;11.762;2024-02-23T19:29:13;96579.25;;;4.05;100.00
17505;BME280;8870;50.950;11.762;2024-02-23T19:34:51;96610.06;;;3.99;100.00
17505;BME280;8870;50.950;11.762;2024-02-23T19:40:11;96630.00;;;3.95;100.00
17505;BME280;8870;50.950;11.762;2024-02-23T19:45:43;96626.34;;;3.88;100.00
17505;BME280;8870;50.950;11.762;2024-02-23T19:51:20;96638.00;;;3.87;100.00
17505;BME280;8870;50.950;11.762;2024-02-23T19:56:54;96641.97;;;3.83;100.00
17505;BME280;8870;50.950;11.762;2024-02-23T20:02:13;96636.00;;;3.81;100.00
17505;BME280;8870;50.950;11.762;2024-02-23T20:07:47;96627.81;;;3.74;100.00
17505;BME280;8870;50.950;11.762;2024-02-23T20:13:07;96614.66;;;3.73;100.00
17505;BME280;8870;50.950;11.762;2024-02-23T20:18:39;96630.31;;;3.67;100.00
17505;BME280;8870;50.950;11.762;2024-02-23T20:24:00;96627.13;;;3.64;100.00
17505;BME280;8870;50.950;11.762;2024-02-23T20:29:31;96634.59;;;3.60;100.00
17505;BME280;8870;50.950;11.762;2024-02-23T20:34:55;96650.41;;;3.62;100.00
17505;BME280;8870;50.950;11.762;2024-02-23T20:40:32;96654.28;;;3.67;100.00
17505;BME280;8870;50.950;11.762;2024-02-23T20:45:52;96660.91;;;3.72;100.00
17505;BME280;8870;50.950;11.762;2024-02-23T20:51:24;96657.25;;;3.73;100.00
17505;BME280;8870;50.950;11.762;2024-02-23T20:56:44;96653.47;;;3.75;100.00
17505;BME280;8870;50.950;11.762;2024-02-23T21:02:15;96657.94;;;3.83;100.00
17505;BME280;8870;50.950;11.762;2024-02-23T21:07:38;96641.66;;;3.86;100.00
17505;BME280;8870;50.950;11.762;2024-02-23T21:13:11;96641.84;;;3.84;100.00
17505;BME280;8870;50.950;11.762;2024-02-23T21:18:35;96639.78;;;3.78;100.00
17505;BME280;8870;50.950;11.762;2024-02-23T21:24:08;96656.44;;;3.72;100.00
17505;BME280;8870;50.950;11.762;2024-02-23T21:29:33;96662.41;;;3.66;100.00
17505;BME280;8870;50.950;11.762;2024-02-23T21:35:08;96654.06;;;3.61;100.00
17505;BME280;8870;50.950;11.762;2024-02-23T21:40:29;96656.53;;;3.54;100.00
17505;BME280;8870;50.950;11.762;2024-02-23T21:46:02;96655.19;;;3.50;100.00
17505;BME280;8870;50.950;11.762;2024-02-23T21:51:24;96660.84;;;3.47;100.00
17505;BME280;8870;50.950;11.762;2024-02-23T21:56:56;96663.31;;;3.40;100.00
17505;BME280;8870;50.950;11.762;2024-02-23T22:02:24;96666.44;;;3.35;100.00
17505;BME280;8870;50.950;11.762;2024-02-23T22:07:56;96648.16;;;3.32;100.00
17505;BME280;8870;50.950;11.762;2024-02-23T22:13:24;96634.63;;;3.26;100.00
17505;BME280;8870;50.950;11.762;2024-02-23T22:19:00;96638.09;;;3.18;100.00
17505;BME280;8870;50.950;11.762;2024-02-23T22:24:28;96634.22;;;3.12;100.00
17505;BME280;8870;50.950;11.762;2024-02-23T22:29:58;96632.88;;;3.08;100.00
17505;BME280;8870;50.950;11.762;2024-02-23T22:35:34;96639.66;;;3.02;100.00
17505;BME280;8870;50.950;11.762;2024-02-23T22:40:53;96632.66;;;3.01;100.00
17505;BME280;8870;50.950;11.762;2024-02-23T22:46:27;96634.00;;;2.97;100.00
17505;BME280;8870;50.950;11.762;2024-02-23T22:51:43;96624.47;;;2.95;100.00
17505;BME280;8870;50.950;11.762;2024-02-23T22:57:16;96628.00;;;2.95;100.00
17505;BME280;8870;50.950;11.762;2024-02-23T23:02:42;96633.63;;;2.92;100.00
17505;BME280;8870;50.950;11.762;2024-02-23T23:08:21;96637.28;;;2.91;100.00
17505;BME280;8870;50.950;11.762;2024-02-23T23:13:39;96654.38;;;2.88;100.00
17505;BME280;8870;50.950;11.762;2024-02-23T23:19:12;96651.91;;;2.87;100.00
17505;BME280;8870;50.950;11.762;2024-02-23T23:24:33;96659.88;;;2.87;100.00
17505;BME280;8870;50.950;11.762;2024-02-23T23:30:06;96675.19;;;2.93;100.00
17505;BME280;8870;50.950;11.762;2024-02-23T23:35:25;96663.25;;;2.97;100.00
17505;BME280;8870;50.950;11.762;2024-02-23T23:40:58;96670.56;;;2.95;100.00
17505;BME280;8870;50.950;11.762;2024-02-23T23:46:17;96668.88;;;2.94;100.00
17505;BME280;8870;50.950;11.762;2024-02-23T23:51:47;96673.91;;;2.97;100.00
17505;BME280;8870;50.950;11.762;2024-02-23T23:57:14;96676.56;;;2.97;100.00
